Austin, Texas
Traffic Map
Current Weather Conditions
Austin, Texas
Scattered Clouds
Scattered Clouds
84°
Feels Like: 89°
Wind Chill: 84° Ceiling: Unl
Heat Index: 89° Visibility: 10mi
Dew Point: 71° Wind: 5mph
Humidity: 65% Direction: ° ()
Pressure: 29.95in Gusts: 0mph
Raw Report DataKATT 050251Z AUTO VRB04KT 10SM SCT110 29/22 A2995 RMK AO2 SLP128 T02890217 53019
Traffic Incident Summary
Active as of:
Severity:
Category:
InformationThere was an issue retrieving the traffic information for this location. Please try a different location or try again shortly.
Advertisements
Track Severe Weather on mobile